Time;durP1;ratioP1;P1;durP2;ratioP2;P2;SDS_P1;SDS_P2;PMS_P1;PMS_P2;Temp;Humidity;BMP_temperature;BMP_pressure;BME280_temperature;BME280_humidity;BME280_pressure;Samples;Min_cycle;Max_cycle;Signal;HPM_P1;HPM_P2
2021/05/04 00:01:49;;;;;;;5.40;4.03;;;;;;;4.12;66.93;98017.55;1756970;80;21147;-76
2021/05/04 00:04:17;;;;;;;6.78;4.40;;;;;;;4.08;67.52;98028.49;1766169;80;21146;-76
2021/05/04 00:06:46;;;;;;;7.97;4.17;;;;;;;4.05;67.18;98025.44;1752800;82;21126;-76
2021/05/04 00:09:13;;;;;;;7.17;4.17;;;;;;;4.05;67.40;98025.44;1752721;82;21130;-76
2021/05/04 00:11:41;;;;;;;8.20;4.78;;;;;;;4.00;68.34;98025.89;1752598;82;21126;-76
2021/05/04 00:14:08;;;;;;;6.53;3.95;;;;;;;3.98;66.88;98022.39;1752696;81;21146;-76
2021/05/04 00:16:36;;;;;;;7.37;4.15;;;;;;;3.96;67.20;98019.77;1752815;82;21139;-76
2021/05/04 00:19:03;;;;;;;5.97;3.95;;;;;;;3.94;67.80;98025.89;1752604;81;21500;-76
2021/05/04 00:21:31;;;;;;;7.62;3.90;;;;;;;3.94;68.23;98028.51;1752803;82;21126;-77
2021/05/04 00:23:59;;;;;;;7.70;4.62;;;;;;;3.95;68.33;98025.03;1752576;82;21182;-76
2021/05/04 00:26:26;;;;;;;6.80;4.30;;;;;;;3.94;67.91;98032.02;1754778;80;21543;-77
2021/05/04 00:28:54;;;;;;;9.20;4.45;;;;;;;3.93;68.19;98030.70;1769416;80;21126;-76
2021/05/04 00:31:22;;;;;;;7.33;4.08;;;;;;;3.90;66.86;98032.89;1762825;80;21134;-77
2021/05/04 00:33:49;;;;;;;7.60;3.90;;;;;;;3.89;67.64;98037.71;1752874;82;21141;-77
2021/05/04 00:36:17;;;;;;;5.50;3.95;;;;;;;3.85;66.99;98038.59;1752701;82;21123;-77
2021/05/04 00:38:44;;;;;;;6.47;4.00;;;;;;;3.85;67.61;98038.59;1752458;82;21161;-77
2021/05/04 00:41:12;;;;;;;7.28;4.37;;;;;;;3.88;66.97;98033.77;1752772;82;21504;-77
2021/05/04 00:43:41;;;;;;;8.20;3.90;;;;;;;3.87;67.94;98039.48;1752935;82;21122;-76
2021/05/04 00:46:08;;;;;;;6.10;4.15;;;;;;;3.86;66.72;98033.77;1752643;82;21125;-76
2021/05/04 00:48:35;;;;;;;8.18;3.67;;;;;;;3.88;66.93;98041.64;1752762;82;21477;-76
2021/05/04 00:51:04;;;;;;;5.65;3.62;;;;;;;3.90;66.65;98043.84;1753285;80;21134;-76
2021/05/04 00:53:33;;;;;;;5.15;3.58;;;;;;;3.92;66.46;98044.70;1772482;80;21126;-77
2021/05/04 00:56:04;;;;;;;7.80;3.83;;;;;;;3.91;66.87;98044.27;1755554;80;21488;-76
2021/05/04 00:58:36;;;;;;;7.55;4.28;;;;;;;3.91;66.33;98051.67;1752499;82;21135;-76
2021/05/04 01:01:04;;;;;;;5.08;3.72;;;;;;;3.85;67.77;98050.84;1752716;82;21472;-76
2021/05/04 01:03:33;;;;;;;6.55;3.95;;;;;;;3.83;66.84;98053.00;1752675;82;21512;-76
2021/05/04 01:06:03;;;;;;;5.33;3.85;;;;;;;3.81;67.91;98048.64;1752617;82;21167;-76
2021/05/04 01:08:30;;;;;;;4.60;3.80;;;;;;;3.79;67.00;98046.47;1752766;82;21521;-76
2021/05/04 01:10:58;;;;;;;6.75;4.00;;;;;;;3.75;67.45;98055.20;1752736;81;21162;-76
2021/05/04 01:13:25;;;;;;;7.67;4.35;;;;;;;3.70;67.74;98052.61;1764930;80;21130;-76
2021/05/04 01:15:53;;;;;;;7.03;3.85;;;;;;;3.65;67.70;98055.22;1766902;80;21140;-76
2021/05/04 01:18:21;;;;;;;7.15;3.87;;;;;;;3.63;67.51;98054.78;1773117;80;21118;-76
2021/05/04 01:20:52;;;;;;;5.22;4.10;;;;;;;3.63;66.91;98057.41;1758005;80;21516;-77
2021/05/04 01:23:19;;;;;;;7.25;4.45;;;;;;;3.62;69.42;98060.91;1763804;80;21135;-77
2021/05/04 01:25:46;;;;;;;4.58;3.62;;;;;;;3.59;68.49;98055.23;1752659;82;21537;-76
2021/05/04 01:28:14;;;;;;;4.50;3.25;;;;;;;3.56;67.74;98048.66;1752515;82;21143;-76
2021/05/04 01:30:41;;;;;;;6.37;3.30;;;;;;;3.54;68.08;98051.28;1752835;82;21134;-76
2021/05/04 01:33:08;;;;;;;4.70;3.50;;;;;;;3.51;67.40;98051.73;1752756;82;21139;-76
2021/05/04 01:35:36;;;;;;;6.28;3.58;;;;;;;3.48;67.89;98042.58;1752533;82;21138;-76
2021/05/04 01:38:04;;;;;;;6.25;3.98;;;;;;;3.45;68.47;98042.56;1751516;82;21095;-76
2021/05/04 01:40:32;;;;;;;7.83;4.12;;;;;;;3.46;67.95;98046.92;1744449;82;21273;-76
2021/05/04 01:42:59;;;;;;;5.17;3.67;;;;;;;3.41;69.22;98043.86;1744338;82;21615;-76
2021/05/04 01:45:27;;;;;;;6.92;3.65;;;;;;;3.36;68.94;98039.06;1751875;81;21485;-76
2021/05/04 01:47:55;;;;;;;5.00;3.37;;;;;;;3.36;67.76;98040.83;1758563;81;21493;-76
2021/05/04 01:50:22;;;;;;;5.60;3.37;;;;;;;3.35;68.95;98032.50;1762145;81;21454;-76
2021/05/04 01:52:50;;;;;;;6.33;4.00;;;;;;;3.34;69.72;98037.31;1744420;82;21147;-76
2021/05/04 01:55:18;;;;;;;8.83;4.00;;;;;;;3.33;68.33;98035.58;1744286;82;21359;-76
2021/05/04 01:57:47;;;;;;;6.72;3.65;;;;;;;3.32;68.93;98029.91;1744470;82;21127;-76
2021/05/04 02:00:16;;;;;;;5.67;3.70;;;;;;;3.29;68.65;98022.47;1744423;82;21300;-76
2021/05/04 02:02:44;;;;;;;6.60;3.60;;;;;;;3.25;69.86;98031.22;1744275;82;21147;-76
2021/05/04 02:05:16;;;;;;;5.20;3.40;;;;;;;3.23;69.01;98030.75;1744496;82;21289;-76
2021/05/04 02:07:42;;;;;;;8.40;3.60;;;;;;;3.17;69.47;98028.57;1744538;82;21130;-76
2021/05/04 02:10:11;;;;;;;5.58;3.40;;;;;;;3.16;69.05;98036.45;1744951;81;21545;-77
2021/05/04 02:12:42;;;;;;;7.12;3.30;;;;;;;3.14;69.12;98026.39;1765942;81;21249;-76
2021/05/04 02:15:11;;;;;;;4.58;3.17;;;;;;;3.13;69.28;98025.96;1766648;81;21118;-76
2021/05/04 02:17:39;;;;;;;4.37;3.12;;;;;;;3.15;68.39;98029.02;1744324;82;21123;-77
2021/05/04 02:20:08;;;;;;;5.00;3.35;;;;;;;3.14;68.21;98031.20;1744560;82;21273;-76
2021/05/04 02:22:36;;;;;;;7.15;3.60;;;;;;;3.14;68.32;98031.62;1744325;82;21277;-76
2021/05/04 02:25:06;;;;;;;5.42;3.70;;;;;;;3.14;68.13;98039.48;1744271;82;21265;-76
2021/05/04 02:27:33;;;;;;;5.03;3.60;;;;;;;3.17;67.64;98032.50;1744315;82;21287;-76
2021/05/04 02:30:03;;;;;;;4.62;3.40;;;;;;;3.19;67.54;98042.98;1744278;82;21131;-76
2021/05/04 02:32:34;;;;;;;5.83;3.40;;;;;;;3.16;67.65;98039.07;1744321;82;21261;-76
2021/05/04 02:35:04;;;;;;;6.00;3.70;;;;;;;3.18;67.47;98041.24;1746749;81;21131;-76
2021/05/04 02:37:32;;;;;;;5.37;3.55;;;;;;;3.19;67.55;98036.89;1756282;81;21600;-76
2021/05/04 02:39:59;;;;;;;4.53;3.20;;;;;;;3.17;67.11;98036.88;1768262;81;21146;-76
2021/05/04 02:42:27;;;;;;;4.95;3.10;;;;;;;3.12;68.20;98036.86;1774995;81;21162;-76
2021/05/04 02:44:55;;;;;;;5.30;3.70;;;;;;;3.11;67.39;98039.50;1774977;81;21110;-77
2021/05/04 02:47:22;;;;;;;5.05;3.10;;;;;;;3.10;68.23;98040.35;1775011;80;21591;-76
2021/05/04 02:49:50;;;;;;;6.87;3.55;;;;;;;3.07;67.36;98042.98;1774996;80;21265;-76
2021/05/04 02:52:17;;;;;;;4.72;3.10;;;;;;;3.04;68.02;98043.86;1774923;80;21147;-76
2021/05/04 02:54:45;;;;;;;6.62;3.37;;;;;;;3.01;67.58;98046.03;1775162;81;21130;-76
2021/05/04 02:57:13;;;;;;;5.92;4.22;;;;;;;2.99;67.68;98051.69;1775140;80;21115;-76
2021/05/04 02:59:41;;;;;;;6.15;3.58;;;;;;;2.97;67.59;98048.20;1774747;81;21269;-76
2021/05/04 03:02:09;;;;;;;4.72;3.60;;;;;;;2.97;68.62;98055.17;1754677;81;21127;-77
2021/05/04 03:04:37;;;;;;;4.47;3.27;;;;;;;2.94;68.82;98049.50;1765482;81;21304;-76
2021/05/04 03:07:04;;;;;;;5.72;3.40;;;;;;;2.96;67.90;98056.05;1765368;81;21273;-77
2021/05/04 03:09:32;;;;;;;8.08;3.70;;;;;;;2.94;68.67;98053.42;1744556;82;21265;-76
2021/05/04 03:12:01;;;;;;;4.72;3.33;;;;;;;2.94;68.50;98056.49;1744401;82;21477;-76
2021/05/04 03:14:28;;;;;;;6.50;3.45;;;;;;;2.92;67.84;98055.59;1744467;82;21261;-76
2021/05/04 03:16:55;;;;;;;5.42;3.72;;;;;;;2.90;67.41;98059.09;1744405;82;21277;-76
2021/05/04 03:19:23;;;;;;;4.62;3.20;;;;;;;2.94;67.57;98066.52;1744221;82;21272;-76
2021/05/04 03:21:50;;;;;;;5.08;3.20;;;;;;;2.96;67.82;98062.17;1744391;82;21270;-76
2021/05/04 03:24:17;;;;;;;7.33;3.60;;;;;;;3.00;67.26;98067.83;1744410;82;21146;-76
2021/05/04 03:26:45;;;;;;;8.45;3.55;;;;;;;3.04;67.30;98060.42;1753327;81;21293;-76
2021/05/04 03:29:13;;;;;;;5.42;3.35;;;;;;;3.07;66.98;98056.94;1754829;81;21146;-76
2021/05/04 03:31:41;;;;;;;5.20;3.20;;;;;;;3.12;66.94;98073.98;1744590;82;21151;-76
2021/05/04 03:34:08;;;;;;;5.65;3.37;;;;;;;3.10;68.31;98071.77;1744384;82;21620;-76
2021/05/04 03:36:36;;;;;;;6.05;3.77;;;;;;;3.07;68.14;98070.02;1744705;82;21134;-77
2021/05/04 03:39:04;;;;;;;6.45;3.90;;;;;;;3.08;67.35;98066.56;1744385;82;21638;-77
2021/05/04 03:41:32;;;;;;;14.50;7.40;;;;;;;3.09;67.33;98071.34;1744452;82;21497;-77
2021/05/04 03:43:59;;;;;;;12.45;6.72;;;;;;;3.12;67.35;98076.14;1744752;82;21138;-77
2021/05/04 03:46:26;;;;;;;6.28;3.87;;;;;;;3.15;67.25;98073.96;1744703;82;21134;-77
2021/05/04 03:48:54;;;;;;;5.62;3.70;;;;;;;3.17;67.28;98079.64;1744379;82;21262;-77
2021/05/04 03:51:23;;;;;;;4.92;3.80;;;;;;;3.21;67.18;98079.23;1736910;81;21135;-77
2021/05/04 03:53:51;;;;;;;6.95;3.72;;;;;;;3.27;66.99;98080.55;1775098;81;21116;-77
2021/05/04 03:56:18;;;;;;;7.25;4.15;;;;;;;3.33;67.13;98085.34;1753214;81;21647;-76
2021/05/04 03:58:46;;;;;;;7.85;4.03;;;;;;;3.34;66.88;98080.12;1744560;82;21273;-78
2021/05/04 04:01:14;;;;;;;7.97;3.90;;;;;;;3.36;67.23;98077.50;1744339;82;21134;-76
2021/05/04 04:03:41;;;;;;;5.85;4.00;;;;;;;3.37;66.90;98081.86;1744480;82;21269;-76
2021/05/04 04:06:09;;;;;;;6.97;4.40;;;;;;;3.42;67.38;98092.80;1744486;82;21276;-76
2021/05/04 04:08:36;;;;;;;7.25;4.08;;;;;;;3.49;67.73;98084.47;1744454;82;21265;-76
2021/05/04 04:11:03;;;;;;;7.12;4.45;;;;;;;3.54;66.82;98084.49;1744586;82;21619;-76
2021/05/04 04:13:33;;;;;;;7.12;4.80;;;;;;;3.59;66.74;98084.48;1744591;82;21628;-76
2021/05/04 04:16:01;;;;;;;6.10;4.40;;;;;;;3.63;66.53;98092.36;1754236;81;21632;-76
2021/05/04 04:18:29;;;;;;;7.20;3.83;;;;;;;3.68;66.57;98091.03;1764433;81;21130;-76
2021/05/04 04:20:56;;;;;;;5.97;4.05;;;;;;;3.75;66.23;98094.53;1749224;80;21632;-76
2021/05/04 04:23:24;;;;;;;9.05;4.47;;;;;;;3.79;66.12;98094.52;1744698;82;21092;-76
2021/05/04 04:25:51;;;;;;;12.13;4.58;;;;;;;3.88;65.99;98100.64;1744619;82;21663;-76
2021/05/04 04:28:19;;;;;;;7.40;3.98;;;;;;;3.96;65.57;98097.13;1744556;82;21143;-77
2021/05/04 04:30:47;;;;;;;5.22;3.98;;;;;;;4.02;65.27;98096.70;1744432;82;21273;-76
2021/05/04 04:33:14;;;;;;;6.37;4.05;;;;;;;4.08;65.08;98094.06;1744586;82;21264;-77
2021/05/04 04:35:41;;;;;;;7.15;4.05;;;;;;;4.14;64.68;98096.66;1744459;82;21269;-76
2021/05/04 04:38:09;;;;;;;7.20;4.12;;;;;;;4.20;64.31;98101.04;1744316;82;21505;-75
2021/05/04 04:40:36;;;;;;;10.05;4.15;;;;;;;4.25;64.27;98097.96;1755934;80;21480;-75
2021/05/04 04:43:03;;;;;;;6.05;4.00;;;;;;;4.31;64.13;98094.42;1779335;80;21276;-75
2021/05/04 04:45:31;;;;;;;6.05;4.60;;;;;;;4.33;63.96;98094.86;1752552;81;21118;-76
2021/05/04 04:47:59;;;;;;;6.62;4.58;;;;;;;4.38;63.86;98101.42;1752667;82;21138;-76
2021/05/04 04:50:26;;;;;;;6.20;4.40;;;;;;;4.42;63.69;98094.41;1752526;82;21123;-76
2021/05/04 04:52:54;;;;;;;9.20;4.87;;;;;;;4.45;63.52;98097.89;1752851;82;21107;-74
2021/05/04 04:55:22;;;;;;;7.58;4.45;;;;;;;4.49;63.46;98100.94;1752772;82;21135;-75
2021/05/04 04:57:49;;;;;;;16.25;5.55;;;;;;;4.55;63.38;98100.48;1752612;82;21489;-75
2021/05/04 05:00:17;;;;;;;8.45;4.90;;;;;;;4.63;63.29;98100.02;1752682;82;21134;-75
2021/05/04 05:02:45;;;;;;;10.08;5.05;;;;;;;4.71;63.02;98096.05;1752659;82;21143;-75
2021/05/04 05:05:13;;;;;;;7.05;4.58;;;;;;;4.78;62.91;98104.35;1756148;80;21153;-76
2021/05/04 05:07:40;;;;;;;6.92;4.55;;;;;;;4.85;62.71;98099.49;1739619;81;21130;-76
2021/05/04 05:10:10;;;;;;;6.40;4.37;;;;;;;4.90;62.60;98096.83;1778247;80;21157;-75
2021/05/04 05:12:37;;;;;;;8.98;4.72;;;;;;;4.98;62.53;98100.30;1783432;80;21312;-76
2021/05/04 05:15:07;;;;;;;5.53;4.15;;;;;;;5.05;62.50;98097.20;1783659;80;21617;-76
2021/05/04 05:17:35;;;;;;;9.88;4.90;;;;;;;5.14;62.47;98098.89;1783510;80;21280;-76
2021/05/04 05:20:04;;;;;;;7.22;4.50;;;;;;;5.23;62.51;98101.47;1783419;80;21261;-76
2021/05/04 05:22:31;;;;;;;6.05;4.58;;;;;;;5.28;62.32;98097.05;1783630;80;21133;-77
2021/05/04 05:24:59;;;;;;;7.00;4.50;;;;;;;5.36;62.35;98097.45;1783604;80;21284;-76
2021/05/04 05:27:33;;;;;;;7.60;4.83;;;;;;;5.44;62.33;98093.45;1783488;80;21273;-76
2021/05/04 05:30:05;;;;;;;7.40;4.90;;;;;;;5.54;62.15;98085.93;1781265;80;21297;-77
2021/05/04 05:32:32;;;;;;;7.17;4.47;;;;;;;5.63;62.02;98080.59;1771301;80;21169;-77
2021/05/04 05:35:00;;;;;;;7.35;4.25;;;;;;;5.74;61.91;98078.31;1767757;80;21087;-77
2021/05/04 05:37:28;;;;;;;8.58;4.58;;;;;;;5.84;61.72;98073.41;1752606;82;21130;-77
2021/05/04 05:39:56;;;;;;;7.28;4.10;;;;;;;5.99;61.54;98078.97;1748815;82;21635;-76
2021/05/04 05:42:23;;;;;;;6.28;4.08;;;;;;;6.09;61.65;98067.08;1744870;82;21134;-76
2021/05/04 05:44:50;;;;;;;5.55;4.03;;;;;;;6.20;61.56;98077.89;1744498;82;21269;-76
2021/05/04 05:47:18;;;;;;;18.90;10.50;;;;;;;6.31;61.36;98067.72;1744596;82;21552;-76
2021/05/04 05:49:47;;;;;;;27.37;13.18;;;;;;;6.45;61.15;98067.09;1706363;84;21136;-76
2021/05/04 05:52:14;;;;;;;7.20;4.28;;;;;;;6.64;59.86;98071.28;1706255;84;21140;-76
2021/05/04 05:54:42;;;;;;;7.67;5.20;;;;;;;6.77;58.66;98069.36;1744415;82;21257;-76
2021/05/04 05:57:09;;;;;;;8.05;5.00;;;;;;;6.95;58.88;98062.97;1748770;81;21130;-76
2021/05/04 05:59:37;;;;;;;6.87;4.95;;;;;;;7.13;57.31;98065.78;1761804;81;21293;-76
2021/05/04 06:02:04;;;;;;;7.90;4.53;;;;;;;7.28;57.91;98063.81;1774980;81;21132;-76
2021/05/04 06:04:32;;;;;;;6.47;4.60;;;;;;;7.40;57.51;98059.22;1775122;80;21149;-76
2021/05/04 06:07:01;;;;;;;6.10;4.17;;;;;;;7.57;55.95;98058.09;1775017;81;21273;-76
2021/05/04 06:09:28;;;;;;;6.95;3.62;;;;;;;7.74;54.57;98055.17;1774894;80;21131;-76
2021/05/04 06:11:56;;;;;;;4.78;3.45;;;;;;;7.93;52.71;98050.44;1775291;81;21110;-76
2021/05/04 06:14:23;;;;;;;7.03;4.20;;;;;;;8.09;51.83;98048.83;1775124;81;21497;-76
2021/05/04 06:16:53;;;;;;;5.62;4.03;;;;;;;8.23;52.91;98047.27;1774884;81;21273;-76
2021/05/04 06:19:20;;;;;;;5.37;3.90;;;;;;;8.38;50.50;98043.91;1775157;81;21130;-76
2021/05/04 06:21:47;;;;;;;6.22;3.60;;;;;;;8.49;50.99;98052.48;1769570;81;21163;-76
2021/05/04 06:24:15;;;;;;;6.97;3.33;;;;;;;8.60;52.07;98048.34;1754632;80;21110;-76
2021/05/04 06:26:42;;;;;;;6.10;3.15;;;;;;;8.73;49.56;98048.06;1774982;81;21146;-76
2021/05/04 06:29:10;;;;;;;9.05;3.22;;;;;;;8.84;50.18;98035.48;1775038;81;21110;-77
2021/05/04 06:31:38;;;;;;;8.90;3.45;;;;;;;8.94;49.09;98037.48;1774994;81;21268;-76
2021/05/04 06:34:09;;;;;;;6.10;3.20;;;;;;;9.03;48.10;98037.28;1774716;81;21118;-76
2021/05/04 06:36:35;;;;;;;4.53;3.20;;;;;;;9.13;49.95;98041.89;1757466;80;21620;-76
2021/05/04 06:39:04;;;;;;;6.97;3.40;;;;;;;9.21;50.09;98033.77;1756883;81;21497;-76
2021/05/04 06:41:35;;;;;;;7.83;3.40;;;;;;;9.28;50.41;98039.35;1753955;81;21126;-76
2021/05/04 06:44:06;;;;;;;5.95;3.15;;;;;;;9.40;42.67;98040.84;1757562;80;21110;-77
2021/05/04 06:46:33;;;;;;;6.25;3.40;;;;;;;9.53;44.07;98042.73;1752939;81;21325;-75
2021/05/04 06:49:01;;;;;;;5.83;3.05;;;;;;;9.60;45.22;98031.55;1755603;80;21253;-77
2021/05/04 06:51:28;;;;;;;4.45;2.60;;;;;;;9.66;46.08;98029.17;1753381;81;21245;-77
2021/05/04 06:53:57;;;;;;;5.42;3.30;;;;;;;9.71;39.23;98042.72;1761788;81;21127;-75
2021/05/04 06:56:25;;;;;;;5.08;2.90;;;;;;;9.84;40.07;98034.00;1764186;81;21619;-75
2021/05/04 06:58:52;;;;;;;5.78;2.70;;;;;;;9.94;39.67;98039.94;1751804;81;21233;-75
2021/05/04 07:01:19;;;;;;;7.20;3.35;;;;;;;10.01;42.20;98032.70;1767523;81;21305;-75
2021/05/04 07:03:47;;;;;;;4.83;2.80;;;;;;;10.05;40.11;98026.39;1768012;81;21122;-75
2021/05/04 07:06:14;;;;;;;5.42;3.02;;;;;;;10.17;40.67;98032.70;1757408;81;21103;-75
2021/05/04 07:08:42;;;;;;;6.60;3.12;;;;;;;10.23;41.91;98024.16;1772490;81;21158;-75
2021/05/04 07:11:10;;;;;;;5.90;3.33;;;;;;;10.26;38.85;98034.21;1750609;81;21182;-75
2021/05/04 07:13:40;;;;;;;5.03;2.87;;;;;;;10.33;36.94;98034.91;1734393;82;21150;-75
2021/05/04 07:16:08;;;;;;;4.78;3.00;;;;;;;10.35;40.23;98027.81;1744468;82;21281;-75
2021/05/04 07:18:36;;;;;;;5.60;3.20;;;;;;;10.39;37.88;98034.73;1744403;82;21134;-76
2021/05/04 07:21:09;;;;;;;5.47;2.60;;;;;;;10.45;39.09;98032.41;1744669;82;21131;-76
2021/05/04 07:23:37;;;;;;;7.65;3.70;;;;;;;10.52;37.93;98025.16;1744474;82;21245;-76
2021/05/04 07:26:05;;;;;;;5.28;3.00;;;;;;;10.58;38.15;98026.77;1744454;82;21466;-76
2021/05/04 07:28:33;;;;;;;6.28;3.87;;;;;;;10.63;36.97;98017.75;1744413;82;21316;-76
2021/05/04 07:31:00;;;;;;;4.60;3.50;;;;;;;10.67;38.47;98030.00;1744633;82;21632;-75
2021/05/04 07:33:28;;;;;;;5.70;3.35;;;;;;;10.71;37.85;98019.32;1757556;81;21763;-76
2021/05/04 07:35:56;;;;;;;5.42;3.00;;;;;;;10.78;37.02;98020.86;1761293;81;21230;-75
2021/05/04 07:38:23;;;;;;;6.58;3.00;;;;;;;10.92;38.15;98018.66;1754577;81;21119;-76
2021/05/04 07:40:52;;;;;;;3.92;2.75;;;;;;;11.01;37.40;98011.34;1702467;84;21541;-75
2021/05/04 07:43:23;;;;;;;3.90;2.65;;;;;;;11.02;38.13;98002.47;1684718;84;21081;-76
2021/05/04 07:45:50;;;;;;;3.60;2.35;;;;;;;11.08;37.02;98023.04;1753791;81;21260;-74
2021/05/04 07:48:19;;;;;;;4.78;2.90;;;;;;;11.18;36.16;98006.84;1775144;81;21148;-75
2021/05/04 07:50:47;;;;;;;7.92;2.72;;;;;;;11.28;37.81;98008.72;1769114;81;21473;-79
2021/05/04 07:53:14;;;;;;;3.85;3.02;;;;;;;11.35;37.88;98015.58;1758165;81;21114;-80
2021/05/04 07:55:42;;;;;;;4.47;3.15;;;;;;;11.40;35.95;98010.99;1759419;81;21138;-77
2021/05/04 07:58:10;;;;;;;3.85;2.67;;;;;;;11.42;37.32;98007.81;1751308;81;21103;-81
2021/05/04 08:00:37;;;;;;;5.28;3.08;;;;;;;11.43;37.15;97997.63;1749659;81;21265;-80
2021/05/04 08:03:05;;;;;;;4.60;3.10;;;;;;;11.51;37.78;98007.99;1693194;84;21136;-81
2021/05/04 08:05:33;;;;;;;5.75;3.05;;;;;;;11.55;37.35;98002.11;1767782;81;21516;-80
2021/05/04 08:08:02;;;;;;;4.33;3.22;;;;;;;11.57;35.97;98001.59;1774678;80;21607;-79
2021/05/04 08:10:29;;;;;;;5.45;2.83;;;;;;;11.55;35.84;97998.98;1774708;80;21127;-80
2021/05/04 08:12:57;;;;;;;4.33;2.80;;;;;;;11.54;35.76;97994.60;1774297;81;21177;-80
2021/05/04 08:15:24;;;;;;;4.55;3.10;;;;;;;11.51;33.32;97996.50;1774370;81;21115;-79
2021/05/04 08:18:00;;;;;;;4.08;2.37;;;;;;;11.54;36.78;97978.67;1770182;81;21131;-79
2021/05/04 08:20:35;;;;;;;4.20;3.30;;;;;;;11.66;37.24;97988.48;1760921;81;21130;-79
2021/05/04 08:23:03;;;;;;;5.37;2.98;;;;;;;11.70;35.49;97980.35;1760655;81;21123;-81
2021/05/04 08:25:31;;;;;;;3.35;2.60;;;;;;;11.74;36.08;97981.98;1760556;81;21249;-81
2021/05/04 08:27:58;;;;;;;6.25;3.12;;;;;;;11.79;36.22;97979.16;1743726;81;21548;-80
2021/05/04 08:30:25;;;;;;;4.62;2.65;;;;;;;11.85;35.71;97972.78;1758783;80;21177;-80
2021/05/04 08:32:55;;;;;;;5.15;3.00;;;;;;;11.90;36.64;97978.80;1760706;81;21277;-79
2021/05/04 08:35:24;;;;;;;5.50;2.62;;;;;;;11.95;36.11;97975.52;1757101;81;21289;-79
2021/05/04 08:37:56;;;;;;;3.80;2.62;;;;;;;12.03;35.92;97974.39;1759509;81;21114;-84
2021/05/04 08:40:26;;;;;;;3.95;2.37;;;;;;;12.26;35.98;97968.27;1755502;80;21248;-82
2021/05/04 08:42:54;;;;;;;4.72;2.70;;;;;;;12.35;32.75;97961.73;1771459;80;21308;-84
2021/05/04 08:45:22;;;;;;;3.60;2.58;;;;;;;12.37;33.33;97961.23;1758404;80;21106;-81
2021/05/04 08:47:52;;;;;;;3.10;2.22;;;;;;;12.44;31.90;97964.49;1759054;80;21163;-80
2021/05/04 08:50:22;;;;;;;3.67;2.20;;;;;;;12.40;32.23;97957.98;1783384;80;21102;-82
2021/05/04 08:52:51;;;;;;;3.87;2.70;;;;;;;12.50;33.70;97958.97;1765756;80;21617;-80
2021/05/04 08:55:19;;;;;;;5.10;2.30;;;;;;;12.60;34.33;97962.12;1771721;80;21488;-80
2021/05/04 08:57:47;;;;;;;3.35;2.70;;;;;;;12.60;30.84;97961.67;1777803;80;21260;-77
2021/05/04 09:00:15;;;;;;;4.80;2.92;;;;;;;12.62;32.89;97954.98;1782974;80;21079;-78
2021/05/04 09:03:06;;;;;;;3.37;2.42;;;;;;;12.63;31.95;97953.56;1752763;80;21133;-81
2021/05/04 09:05:39;;;;;;;3.40;2.10;;;;;;;12.65;32.49;97941.55;1714108;84;21242;-79
2021/05/04 09:08:12;;;;;;;3.15;2.02;;;;;;;12.68;31.54;97942.77;1693851;85;21185;-79
2021/05/04 09:13:29;;;;;;;4.33;2.22;;;;;;;12.79;33.16;97937.88;1714134;84;21510;-78
2021/05/04 09:21:40;;;;;;;4.15;2.37;;;;;;;13.16;34.72;97937.34;1707115;83;21179;-79
2021/05/04 09:24:23;;;;;;;6.95;2.83;;;;;;;13.18;30.94;97934.14;1719396;82;21524;-78
2021/05/04 09:27:05;;;;;;;4.12;2.60;;;;;;;13.24;31.96;97927.71;1698019;84;21116;-84
2021/05/04 09:29:37;;;;;;;3.55;2.37;;;;;;;13.25;31.75;97934.76;1700805;84;21096;-79
2021/05/04 09:32:14;;;;;;;4.40;2.25;;;;;;;13.19;30.72;97928.77;1686309;84;22308;-77
2021/05/04 09:34:58;;;;;;;2.80;2.30;;;;;;;13.19;30.02;97936.75;1694529;84;21170;-78
2021/05/04 09:37:36;;;;;;;2.62;2.10;;;;;;;13.07;29.61;97919.94;1697027;84;21134;-76
2021/05/04 09:40:29;;;;;;;3.35;2.52;;;;;;;13.13;30.85;97918.38;1708467;82;21559;-76
2021/05/04 09:43:17;;;;;;;3.33;2.30;;;;;;;13.31;32.24;97915.41;1700944;84;21100;-77
2021/05/04 09:45:56;;;;;;;4.78;2.50;;;;;;;13.41;30.39;97924.34;1693660;84;21450;-76
2021/05/04 09:48:35;;;;;;;4.70;3.00;;;;;;;13.34;30.09;97915.27;1716329;83;21595;-75
2021/05/04 09:51:19;;;;;;;2.72;2.20;;;;;;;13.38;29.67;97920.47;1701711;84;21155;-76
2021/05/04 09:56:19;;;;;;;2.40;2.00;;;;;;;13.54;31.37;97908.25;1709915;83;21611;-75
2021/05/04 09:58:50;;;;;;;3.30;2.20;;;;;;;13.66;31.46;97910.00;1714518;83;21263;-77
2021/05/04 10:01:20;;;;;;;3.85;2.10;;;;;;;13.73;28.87;97915.45;1715141;83;22278;-75
2021/05/04 10:03:56;;;;;;;3.25;2.00;;;;;;;13.78;29.14;97912.11;1698439;83;21119;-76
2021/05/04 10:06:22;;;;;;;2.40;2.08;;;;;;;13.87;30.73;97914.83;1717408;83;21261;-75
2021/05/04 10:08:51;;;;;;;2.60;1.95;;;;;;;13.92;29.94;97902.66;1715412;83;21300;-76
2021/05/04 10:11:22;;;;;;;3.47;2.20;;;;;;;13.95;28.62;97897.20;1701957;84;21210;-75
2021/05/04 10:13:56;;;;;;;4.08;2.10;;;;;;;14.04;30.03;97887.42;1714701;83;21453;-76
2021/05/04 10:16:27;;;;;;;3.90;2.33;;;;;;;14.14;30.22;97882.56;1721934;83;21257;-76
2021/05/04 10:19:04;;;;;;;5.92;2.52;;;;;;;14.27;30.72;97870.86;1713819;82;21579;-78
2021/05/04 10:21:32;;;;;;;2.47;2.22;;;;;;;14.49;31.43;97865.38;1714040;83;21248;-79
2021/05/04 10:24:00;;;;;;;3.08;1.90;;;;;;;14.65;29.92;97861.51;1701612;84;21178;-77
2021/05/04 10:26:32;;;;;;;4.90;2.30;;;;;;;14.71;29.28;97862.14;1602133;85;28331;-74
2021/05/04 10:29:07;;;;;;;2.17;1.92;;;;;;;14.87;30.33;97855.62;1609407;89;21176;-75
2021/05/04 10:31:47;;;;;;;3.98;2.40;;;;;;;15.01;30.35;97850.93;1635988;88;21168;-75
2021/05/04 10:34:30;;;;;;;2.58;2.20;;;;;;;14.99;27.22;97856.34;1622104;87;21158;-75
2021/05/04 10:37:15;;;;;;;4.37;2.20;;;;;;;15.00;26.77;97853.21;1615442;89;21128;-73
2021/05/04 10:39:47;;;;;;;3.02;2.02;;;;;;;15.35;27.36;97845.67;1610649;88;21185;-75
2021/05/04 10:42:18;;;;;;;3.33;2.00;;;;;;;16.77;28.31;97836.28;1637798;86;21171;-75
2021/05/04 10:45:01;;;;;;;2.15;1.92;;;;;;;18.05;25.02;97841.67;1633638;87;21194;-76
2021/05/04 10:47:47;;;;;;;2.52;1.90;;;;;;;19.35;25.31;97817.27;1647382;86;21146;-76
2021/05/04 10:50:43;;;;;;;2.52;2.00;;;;;;;20.60;20.98;97811.23;1645925;86;21174;-73
2021/05/04 10:53:11;;;;;;;3.12;2.30;;;;;;;21.56;22.61;97801.34;1643890;86;21200;-76
2021/05/04 10:55:59;;;;;;;2.20;1.95;;;;;;;22.13;20.14;97801.91;1644008;86;21170;-75
2021/05/04 10:58:32;;;;;;;2.83;1.90;;;;;;;22.93;20.94;97794.48;1638634;86;27123;-77
2021/05/04 11:01:07;;;;;;;2.33;1.90;;;;;;;23.24;18.83;97796.95;1653387;86;21151;-81
2021/05/04 11:03:49;;;;;;;2.30;2.00;;;;;;;23.82;18.91;97784.79;1655511;86;21141;-79
2021/05/04 11:06:30;;;;;;;2.95;2.00;;;;;;;24.30;18.11;97786.03;1649140;86;21173;-77
2021/05/04 11:09:09;;;;;;;3.00;2.15;;;;;;;24.22;16.09;97780.44;1671958;86;21138;-77
2021/05/04 11:14:24;;;;;;;3.08;1.80;;;;;;;24.59;16.93;97760.86;1800302;79;23018;-77
2021/05/04 11:19:44;;;;;;;3.62;2.10;;;;;;;25.17;16.15;97755.09;1739638;82;21553;-76
2021/05/04 11:22:22;;;;;;;2.42;1.80;;;;;;;24.88;15.92;97750.55;1738345;82;21157;-76
2021/05/04 11:24:51;;;;;;;3.15;2.08;;;;;;;24.18;15.96;97747.38;1743962;82;21521;-76
2021/05/04 11:27:26;;;;;;;2.55;1.75;;;;;;;23.93;16.20;97754.09;1724114;82;21157;-76
2021/05/04 11:29:58;;;;;;;3.15;1.75;;;;;;;23.81;15.83;97741.14;1748999;82;21564;-75
2021/05/04 11:32:42;;;;;;;6.72;1.82;;;;;;;24.29;15.92;97735.55;1750785;82;21144;-77
2021/05/04 11:35:11;;;;;;;2.80;2.08;;;;;;;25.05;17.30;97738.64;1747097;82;21188;-77
2021/05/04 11:37:45;;;;;;;2.40;1.90;;;;;;;25.81;16.38;97731.98;1751674;82;21176;-78
2021/05/04 11:40:25;;;;;;;3.17;1.85;;;;;;;26.24;15.79;97728.30;1743933;80;21160;-77
2021/05/04 11:43:02;;;;;;;2.17;1.70;;;;;;;26.54;14.70;97733.06;1746839;82;21191;-77
2021/05/04 11:45:34;;;;;;;2.85;2.42;;;;;;;26.65;16.04;97720.25;1750580;82;21230;-77
2021/05/04 11:50:51;;;;;;;3.25;1.90;;;;;;;27.27;15.32;97718.92;1788423;79;38372;-76
2021/05/04 11:53:19;;;;;;;2.00;1.65;;;;;;;27.69;15.76;97715.13;1799112;79;21127;-77
2021/05/04 11:55:54;;;;;;;2.87;1.57;;;;;;;27.81;13.31;97712.97;1795225;79;21110;-77
2021/05/04 11:58:28;;;;;;;2.62;1.90;;;;;;;28.31;15.35;97701.79;1787715;79;21157;-77
2021/05/04 12:01:00;;;;;;;2.70;1.90;;;;;;;28.50;14.71;97692.98;1804572;79;21111;-78
2021/05/04 12:03:28;;;;;;;1.92;1.52;;;;;;;26.97;13.17;97703.90;1791398;79;21106;-78
2021/05/04 12:05:58;;;;;;;2.05;1.60;;;;;;;26.98;14.26;97701.03;1791623;79;21571;-77
2021/05/04 12:08:26;;;;;;;2.10;1.90;;;;;;;27.11;14.45;97699.25;1727698;82;21551;-77
2021/05/04 12:10:55;;;;;;;3.83;2.00;;;;;;;26.85;13.60;97697.81;1734255;82;21501;-78